| time (UTC) | temp F | wind direction | speed MPH | gust MPH | rain 1hr in | rain 24hr in | rain mn in | humidity % | barometer mb |
| 20260903064546 | 83 | 211 | 3.0 | 6.0 | 0.00 | 0.00 | 0.00 | 70 | 1013.2 |
| 20260903063045 | 82 | 219 | 4.0 | 8.0 | 0.00 | 0.00 | 0.00 | 71 | 1013.3 |
| 20260903061552 | 82 | 215 | 5.0 | 8.0 | 0.00 | 0.00 | 0.00 | 70 | 1013.2 |
| 20260903060043 | 83 | 211 | 5.0 | 9.0 | 0.00 | 0.00 | 0.00 | 70 | 1013.2 |
| 20260903054547 | 83 | 197 | 3.0 | 9.0 | 0.00 | 0.00 | 0.00 | 69 | 1013.1 |
| 20260903053059 | 83 | 227 | 4.0 | 9.0 | 0.00 | 0.00 | 0.00 | 68 | 1013.1 |
| 20260903051536 | 84 | 215 | 3.0 | 10.0 | 0.00 | 0.00 | 0.00 | 67 | 1013.1 |
| 20260903050035 | 84 | 219 | 5.0 | 8.0 | 0.00 | 0.00 | 0.00 | 66 | 1012.9 |
| 20260903044545 | 84 | 213 | 4.0 | 7.0 | 0.00 | 0.00 | 0.00 | 65 | 1012.8 |
| 20260903043033 | 84 | 205 | 3.0 | 7.0 | 0.00 | 0.00 | 0.00 | 67 | 1012.7 |
| 20260903041534 | 84 | 212 | 4.0 | 6.0 | 0.00 | 0.00 | 0.00 | 66 | 1012.7 |
| 20260903040034 | 85 | 215 | 2.0 | 5.0 | 0.00 | 0.00 | 0.00 | 65 | 1012.7 |
| 20260903034533 | 85 | 216 | 3.0 | 5.0 | 0.00 | 0.00 | 0.00 | 66 | 1012.6 |
| 20260903033032 | 85 | 219 | 2.0 | 5.0 | 0.00 | 0.00 | 0.00 | 67 | 1012.6 |
| 20260903031532 | 86 | 210 | 3.0 | 5.0 | 0.00 | 0.00 | 0.00 | 67 | 1012.7 |
| 20260903030039 | 86 | 219 | 3.0 | 6.0 | 0.00 | 0.00 | 0.00 | 66 | 1012.7 |
| 20260903024539 | 86 | 211 | 3.0 | 6.0 | 0.00 | 0.00 | 0.00 | 68 | 1012.5 |
| 20260903023030 | 87 | 211 | 3.0 | 4.0 | 0.00 | 0.00 | 0.00 | 68 | 1012.6 |
| 20260903021633 | 87 | 202 | 2.0 | 4.0 | 0.00 | 0.00 | 0.00 | 67 | 1012.6 |
| 20260903020033 | 87 | 186 | 2.0 | 5.0 | 0.00 | 0.00 | 0.00 | 68 | 1012.6 |
| 20260903014529 | 87 | 190 | 2.0 | 5.0 | 0.00 | 0.00 | 0.00 | 67 | 1012.5 |
| 20260903013029 | 88 | 209 | 4.0 | 8.0 | 0.00 | 0.00 | 0.00 | 66 | 1012.4 |
| 20260903011539 | 88 | 182 | 3.0 | 6.0 | 0.00 | 0.00 | 0.00 | 67 | 1012.2 |
| 20260903010027 | 88 | 186 | 2.0 | 4.0 | 0.00 | 0.00 | 0.00 | 68 | 1012.1 |
| 20260903004531 | 89 | 182 | 3.0 | 5.0 | 0.00 | 0.00 | 0.00 | 67 | 1012.1 |
| 20260903003026 | 89 | 183 | 2.0 | 4.0 | 0.00 | 0.00 | 0.00 | 68 | 1012.0 |
| 20260903001525 | 90 | 182 | 0.0 | 0.0 | 0.00 | 0.00 | 0.00 | 69 | 1012.1 |
| 20260903000025 | 91 | 182 | 0.0 | 3.0 | 0.00 | 0.00 | 0.00 | 66 | 1012.1 |
| 20260902234524 | 92 | 212 | 0.0 | 1.0 | 0.00 | 0.00 | 0.00 | 62 | 1012.2 |
| 20260902233030 | 93 | 212 | 0.0 | 3.0 | 0.00 | 0.00 | 0.00 | 58 | 1012.1 |
| 20260902231523 | 95 | 217 | 1.0 | 4.0 | 0.00 | 0.00 | 0.00 | 55 | 1012.2 |
| 20260902230022 | 95 | 218 | 3.0 | 7.0 | 0.00 | 0.00 | 0.00 | 53 | 1012.2 |
| 20260902224521 | 95 | 200 | 4.0 | 7.0 | 0.00 | 0.00 | 0.00 | 52 | 1012.2 |
| 20260902223021 | 96 | 211 | 3.0 | 6.0 | 0.00 | 0.00 | 0.00 | 51 | 1012.3 |
| 20260902221520 | 97 | 235 | 2.0 | 8.0 | 0.00 | 0.00 | 0.00 | 50 | 1012.3 |
| 20260902220019 | 96 | 211 | 3.0 | 8.0 | 0.00 | 0.00 | 0.00 | 51 | 1012.4 |
| 20260902214519 | 97 | 202 | 4.0 | 7.0 | 0.00 | 0.00 | 0.00 | 51 | 1012.4 |
| 20260902213019 | 97 | 185 | 2.0 | 8.0 | 0.00 | 0.00 | 0.00 | 51 | 1012.4 |
| 20260902211517 | 96 | 174 | 5.0 | 11.0 | 0.00 | 0.00 | 0.00 | 52 | 1012.5 |
| 20260902210015 | 97 | 191 | 5.0 | 11.0 | 0.00 | 0.00 | 0.00 | 53 | 1012.7 |
| 20260902204533 | 96 | 217 | 4.0 | 7.0 | 0.00 | 0.00 | 0.00 | 55 | 1012.7 |
| 20260902203012 | 96 | 213 | 4.0 | 10.0 | 0.00 | 0.00 | 0.00 | 54 | 1012.9 |
| 20260902201522 | 96 | 224 | 6.0 | 11.0 | 0.00 | 0.00 | 0.00 | 51 | 1013.0 |
| 20260902194509 | 96 | 208 | 6.0 | 11.0 | 0.00 | 0.00 | 0.00 | 54 | 1013.3 |
| 20260902193006 | 96 | 206 | 3.0 | 10.0 | 0.00 | 0.00 | 0.00 | 56 | 1013.4 |
| 20260902191512 | 95 | 203 | 5.0 | 10.0 | 0.00 | 0.00 | 0.00 | 55 | 1013.6 |
| 20260902190004 | 95 | 249 | 7.0 | 11.0 | 0.00 | 0.00 | 0.00 | 54 | 1013.5 |
| 20260902184504 | 96 | 213 | 4.0 | 8.0 | 0.00 | 0.00 | 0.00 | 55 | 1013.6 |
| 20260902183003 | 94 | 219 | 4.0 | 9.0 | 0.00 | 0.00 | 0.00 | 56 | 1013.6 |
| 20260902181502 | 94 | 209 | 5.0 | 13.0 | 0.00 | 0.00 | 0.00 | 55 | 1013.6 |
| 20260902180004 | 95 | 229 | 2.0 | 7.0 | 0.00 | 0.00 | 0.00 | 55 | 1013.7 |
| 20260902174600 | 94 | 214 | 5.0 | 13.0 | 0.00 | 0.00 | 0.00 | 56 | 1013.9 |
| 20260902173058 | 95 | 217 | 2.0 | 13.0 | 0.00 | 0.00 | 0.00 | 55 | 1014.0 |
| 20260902171608 | 96 | 275 | 3.0 | 10.0 | 0.00 | 0.00 | 0.00 | 52 | 1014.2 |
| 20260902170055 | 93 | 198 | 6.0 | 12.0 | 0.00 | 0.00 | 0.00 | 56 | 1014.3 |
| 20260902164600 | 94 | 240 | 3.0 | 12.0 | 0.00 | 0.00 | 0.00 | 55 | 1014.3 |
| 20260902163054 | 94 | 229 | 6.0 | 11.0 | 0.00 | 0.00 | 0.00 | 55 | 1014.3 |
| 20260902161600 | 91 | 211 | 5.0 | 12.0 | 0.00 | 0.00 | 0.00 | 59 | 1014.4 |
| 20260902160049 | 91 | 281 | 4.0 | 11.0 | 0.00 | 0.00 | 0.00 | 60 | 1014.4 |
| 20260902154604 | 91 | 236 | 3.0 | 9.0 | 0.00 | 0.00 | 0.00 | 61 | 1014.4 |
| 20260902153047 | 89 | 231 | 3.0 | 8.0 | 0.00 | 0.00 | 0.00 | 64 | 1014.4 |
| 20260902151541 | 88 | 228 | 4.0 | 10.0 | 0.00 | 0.00 | 0.00 | 67 | 1014.4 |
| 20260902150040 | 87 | 188 | 3.0 | 10.0 | 0.00 | 0.00 | 0.00 | 67 | 1014.5 |
| 20260902144540 | 85 | 206 | 5.0 | 11.0 | 0.00 | 0.00 | 0.00 | 70 | 1014.4 |
| 20260902143034 | 84 | 224 | 5.0 | 14.0 | 0.00 | 0.00 | 0.00 | 72 | 1014.4 |
| 20260902141533 | 83 | 205 | 5.0 | 10.0 | 0.00 | 0.00 | 0.00 | 72 | 1014.4 |
| 20260902140037 | 83 | 218 | 4.0 | 12.0 | 0.00 | 0.00 | 0.00 | 73 | 1014.5 |
| 20260902134532 | 81 | 229 | 4.0 | 13.0 | 0.00 | 0.00 | 0.00 | 75 | 1014.5 |
| 20260902133031 | 81 | 205 | 6.0 | 10.0 | 0.00 | 0.00 | 0.00 | 75 | 1014.6 |
| 20260902131530 | 81 | 184 | 4.0 | 9.0 | 0.00 | 0.00 | 0.00 | 76 | 1014.6 |
| 20260902130030 | 80 | 217 | 4.0 | 10.0 | 0.00 | 0.00 | 0.00 | 77 | 1014.7 |
| 20260902124629 | 79 | 218 | 6.0 | 10.0 | 0.00 | 0.00 | 0.00 | 78 | 1014.7 |
| 20260902123031 | 78 | 192 | 5.0 | 11.0 | 0.00 | 0.00 | 0.00 | 80 | 1014.8 |
| 20260902121528 | 77 | 216 | 4.0 | 7.0 | 0.00 | 0.00 | 0.00 | 81 | 1014.9 |
| 20260902120027 | 77 | 199 | 2.0 | 7.0 | 0.00 | 0.00 | 0.00 | 81 | 1014.8 |
| 20260902114526 | 77 | 195 | 2.0 | 6.0 | 0.00 | 0.00 | 0.00 | 81 | 1014.6 |
| 20260902113024 | 77 | 205 | 2.0 | 6.0 | 0.00 | 0.00 | 0.00 | 80 | 1014.6 |
| 20260902111523 | 77 | 198 | 2.0 | 6.0 | 0.00 | 0.00 | 0.00 | 80 | 1014.5 |
| 20260902110021 | 78 | 205 | 2.0 | 9.0 | 0.00 | 0.00 | 0.00 | 78 | 1014.6 |
| 20260902104521 | 78 | 203 | 4.0 | 6.0 | 0.00 | 0.00 | 0.00 | 78 | 1014.6 |
| 20260902103034 | 79 | 211 | 4.0 | 8.0 | 0.00 | 0.00 | 0.00 | 77 | 1014.6 |
| 20260902101530 | 78 | 217 | 4.0 | 7.0 | 0.00 | 0.00 | 0.00 | 77 | 1014.5 |
| 20260902100017 | 78 | 213 | 5.0 | 9.0 | 0.00 | 0.00 | 0.00 | 77 | 1014.4 |
| 20260902094515 | 79 | 217 | 4.0 | 8.0 | 0.00 | 0.00 | 0.00 | 77 | 1014.3 |
| 20260902093014 | 79 | 205 | 4.0 | 8.0 | 0.00 | 0.00 | 0.00 | 76 | 1014.2 |
| 20260902091512 | 79 | 219 | 3.0 | 6.0 | 0.00 | 0.00 | 0.00 | 76 | 1014.1 |
| 20260902090012 | 78 | 216 | 3.0 | 7.0 | 0.00 | 0.00 | 0.00 | 76 | 1014.1 |
| 20260902084511 | 79 | 207 | 3.0 | 7.0 | 0.00 | 0.00 | 0.00 | 75 | 1014.0 |
| 20260902083008 | 80 | 214 | 3.0 | 7.0 | 0.00 | 0.00 | 0.00 | 73 | 1014.1 |
| 20260902081506 | 80 | 211 | 2.0 | 6.0 | 0.00 | 0.00 | 0.00 | 72 | 1014.0 |
| 20260902080006 | 80 | 207 | 3.0 | 7.0 | 0.00 | 0.00 | 0.00 | 72 | 1013.9 |
| 20260902074506 | 80 | 218 | 4.0 | 8.0 | 0.00 | 0.00 | 0.00 | 72 | 1013.9 |
| 20260902073003 | 81 | 223 | 4.0 | 8.0 | 0.00 | 0.00 | 0.00 | 70 | 1014.1 |
| 20260902071501 | 82 | 207 | 3.0 | 7.0 | 0.00 | 0.00 | 0.00 | 69 | 1014.1 |
| 20260902070101 | 82 | 223 | 4.0 | 8.0 | 0.00 | 0.00 | 0.00 | 69 | 1014.1 |